Florence Regional Airport
KFLO : now visible

Airfield :











YOU CAN JOIN US ON...

 
LOGIN :

Register | Disclaimer

   EN    FR    IT 

 









Legend :    VFR   Marginal VFR   IFR   Intensive IFR   Very Intensive IFR
Visi :
Ceiling :
>= 8 km
>= 3000ft
5 to 8 km
1000 to 3000 ft
1500m to 5 km
500 to 1000 ft
800 to 1500m
200 to 500 ft
< 800m
< 200 ft
Symbols :   Thunderstorms  Fog  Heavy snow  Heavy precipitations  Wind > 20 kt







- Airport Elevation : 146 ft
- IATA code : FLO


KFLO - Florence Regional

CURRENT METAR :
  • 210553Z 21005KT 10SM CLR 27/24 A3004 RMK AO2 SLP169 T02670239 10328 20267 50003

EXPIRED METARs :
  • 210453Z 20006KT 10SM CLR 28/23 A3005 RMK AO2 SLP171 T02780228 403560233
  • 210353Z 21006KT 10SM CLR 28/23 A3004 RMK AO2 SLP168 T02780228

TAF KFLO
Valid from the 21 at 06:00 until the 22 at 06:00 UTC


210522Z 2106/2206 22004KT P6SM SKC
FM211700 23010G17KT P6SM FEW060
FM220000 20006KT P6SM SKC
KZJX FIR / North America



MET'MAP, your aeronautical weather chart ! - Copyright ORBIFLY December 2007 - Disclaimer

ORBIFLY MET'MAP TEAM :

Programming & Development : Alexandra Zaïnal
Concept & Development : Baudouin d'Aumeries
Co-Development & Prog : Marc-Olivier Méhu
Technical & hardware support : Manuel Goepfert

Contact : metmap@orbifly.com




SOURCES & CREDITS :

   NOAA       Earth
Advisory